createdAt,value
2023-05-13T00:02:16.363Z,4.05
2023-05-13T00:04:43.329Z,4.10
2023-05-13T00:07:10.338Z,5.05
2023-05-13T00:09:37.729Z,4.38
2023-05-13T00:12:05.111Z,3.60
2023-05-13T00:14:32.118Z,3.58
2023-05-13T00:16:59.573Z,4.22
2023-05-13T00:19:26.585Z,4.47
2023-05-13T00:21:53.570Z,4.43
2023-05-13T00:24:20.575Z,4.50
2023-05-13T00:26:48.013Z,4.50
2023-05-13T00:29:14.993Z,3.95
2023-05-13T00:31:42.163Z,4.60
2023-05-13T00:34:09.242Z,4.10
2023-05-13T00:36:36.254Z,3.78
2023-05-13T00:39:03.941Z,4.68
2023-05-13T00:41:30.992Z,3.90
2023-05-13T00:43:57.963Z,4.20
2023-05-13T00:46:25.330Z,4.68
2023-05-13T00:48:53.374Z,4.40
2023-05-13T00:51:20.527Z,3.90
2023-05-13T00:53:47.657Z,4.50
2023-05-13T00:56:19.292Z,4.60
2023-05-13T00:58:46.259Z,4.57
2023-05-13T01:01:22.142Z,4.30
2023-05-13T01:04:15.380Z,4.50
2023-05-13T01:06:53.584Z,4.47
2023-05-13T01:09:38.364Z,3.92
2023-05-13T01:12:11.533Z,4.32
2023-05-13T01:15:07.922Z,3.65
2023-05-13T01:18:05.381Z,5.22
2023-05-13T01:20:33.933Z,4.85
2023-05-13T01:23:00.892Z,3.60
2023-05-13T01:25:27.830Z,3.80
2023-05-13T01:27:56.062Z,4.63
2023-05-13T01:30:24.033Z,4.50
2023-05-13T01:32:51.948Z,4.60
2023-05-13T01:35:21.102Z,4.78
2023-05-13T01:37:50.391Z,4.22
2023-05-13T01:40:31.594Z,4.53
2023-05-13T01:43:01.988Z,4.38
2023-05-13T01:45:30.581Z,3.67
2023-05-13T01:47:58.204Z,4.50
2023-05-13T01:50:26.906Z,3.63
2023-05-13T01:52:54.031Z,4.20
2023-05-13T01:55:20.973Z,4.65
2023-05-13T01:57:49.164Z,3.95
2023-05-13T02:00:16.651Z,4.75
2023-05-13T02:02:44.508Z,4.65
2023-05-13T02:05:11.654Z,4.70
2023-05-13T02:07:38.646Z,4.40
2023-05-13T02:10:06.210Z,4.90
2023-05-13T02:12:33.335Z,4.03
2023-05-13T02:15:00.329Z,3.88
2023-05-13T02:17:27.424Z,4.60
2023-05-13T02:19:54.424Z,3.38
2023-05-13T02:22:21.456Z,4.20
2023-05-13T02:24:48.399Z,4.47
2023-05-13T02:27:16.538Z,4.38
2023-05-13T02:29:43.688Z,5.63
2023-05-13T02:32:11.776Z,4.38
2023-05-13T02:34:38.885Z,5.22
2023-05-13T02:37:06.255Z,4.43
2023-05-13T02:39:38.963Z,3.88
2023-05-13T02:42:06.392Z,4.35
2023-05-13T02:44:33.455Z,4.95
2023-05-13T02:47:01.691Z,3.60
2023-05-13T02:49:28.735Z,4.88
2023-05-13T02:51:55.733Z,4.40
2023-05-13T02:54:29.618Z,4.53
2023-05-13T02:56:56.526Z,4.63
2023-05-13T02:59:23.620Z,4.70
2023-05-13T03:01:50.661Z,4.28
2023-05-13T03:04:17.625Z,5.00
2023-05-13T03:06:44.590Z,4.90
2023-05-13T03:09:11.567Z,4.43
2023-05-13T03:11:38.602Z,3.72
2023-05-13T03:14:05.902Z,5.00
2023-05-13T03:16:33.010Z,4.63
2023-05-13T03:19:00.086Z,5.25
2023-05-13T03:21:27.231Z,5.20
2023-05-13T03:23:54.393Z,4.68
2023-05-13T03:26:21.781Z,5.50
2023-05-13T03:28:48.770Z,4.40
2023-05-13T03:31:17.121Z,5.00
2023-05-13T03:33:44.588Z,4.75
2023-05-13T03:36:12.897Z,4.70
2023-05-13T03:38:40.698Z,5.35
2023-05-13T03:41:07.854Z,4.82
2023-05-13T03:43:34.875Z,5.13
2023-05-13T03:46:06.570Z,5.80
2023-05-13T03:48:33.726Z,5.53
2023-05-13T03:51:02.827Z,5.57
2023-05-13T03:53:30.289Z,5.15
2023-05-13T03:55:58.053Z,5.20
2023-05-13T03:58:27.778Z,5.68
2023-05-13T04:00:54.814Z,5.88
2023-05-13T04:03:21.853Z,6.05
2023-05-13T04:05:49.432Z,5.95
2023-05-13T04:08:16.418Z,5.85
2023-05-13T04:10:43.724Z,6.78
2023-05-13T04:13:11.338Z,5.72
2023-05-13T04:15:38.272Z,5.38
2023-05-13T04:18:06.897Z,6.45
2023-05-13T04:20:34.987Z,6.15
2023-05-13T04:23:02.086Z,6.00
2023-05-13T04:25:29.613Z,6.63
2023-05-13T04:27:56.683Z,6.85
2023-05-13T04:30:31.809Z,7.25
2023-05-13T04:32:58.741Z,5.60
2023-05-13T04:35:25.817Z,6.68
2023-05-13T04:37:57.042Z,6.50
2023-05-13T04:40:24.368Z,6.90
2023-05-13T04:42:55.048Z,7.50
2023-05-13T04:45:31.619Z,7.25
2023-05-13T04:47:58.818Z,6.53
2023-05-13T04:50:26.110Z,6.40
2023-05-13T04:52:54.967Z,6.15
2023-05-13T04:55:23.054Z,7.85
2023-05-13T04:57:50.723Z,7.18
2023-05-13T05:00:18.752Z,8.45
2023-05-13T05:02:48.277Z,7.75
2023-05-13T05:05:18.104Z,8.10
2023-05-13T05:07:45.803Z,7.15
2023-05-13T05:10:15.085Z,8.30
2023-05-13T05:12:47.173Z,7.93
2023-05-13T05:15:17.088Z,7.78
2023-05-13T05:17:47.332Z,7.97
2023-05-13T05:20:14.676Z,8.02
2023-05-13T05:22:42.287Z,8.18
2023-05-13T05:25:11.660Z,6.60
2023-05-13T05:27:38.991Z,6.68
2023-05-13T05:30:09.079Z,7.05
2023-05-13T05:32:37.138Z,6.88
2023-05-13T05:35:06.032Z,7.22
2023-05-13T05:37:34.373Z,7.20
2023-05-13T05:40:01.756Z,6.72
2023-05-13T05:42:29.808Z,7.68
2023-05-13T05:44:56.788Z,8.13
2023-05-13T05:47:23.844Z,7.82
2023-05-13T05:49:51.285Z,7.82
2023-05-13T05:52:19.256Z,9.02
2023-05-13T05:54:46.200Z,8.75
2023-05-13T05:57:13.488Z,7.05
2023-05-13T05:59:40.441Z,8.07
2023-05-13T06:02:07.894Z,6.40
2023-05-13T06:04:35.879Z,7.20
2023-05-13T06:07:03.162Z,7.25
2023-05-13T06:09:30.737Z,7.57
2023-05-13T06:11:57.812Z,8.65
2023-05-13T06:14:24.928Z,8.40
2023-05-13T06:16:53.532Z,8.52
2023-05-13T06:19:21.590Z,7.20
2023-05-13T06:21:48.738Z,7.40
2023-05-13T06:24:15.725Z,6.68
2023-05-13T06:26:43.290Z,7.53
2023-05-13T06:29:10.316Z,7.03
2023-05-13T06:31:37.545Z,7.55
2023-05-13T06:34:04.544Z,7.25
2023-05-13T06:36:33.206Z,7.07
2023-05-13T06:39:02.153Z,7.35
2023-05-13T06:41:29.612Z,7.32
2023-05-13T06:44:02.866Z,7.47
2023-05-13T06:46:29.949Z,7.55
2023-05-13T06:48:58.025Z,7.22
2023-05-13T06:51:30.590Z,7.78
2023-05-13T06:53:57.742Z,7.43
2023-05-13T06:56:25.848Z,7.88
2023-05-13T06:58:53.439Z,7.93
2023-05-13T07:01:20.565Z,7.20
2023-05-13T07:03:47.669Z,8.07
2023-05-13T07:06:14.859Z,8.20
2023-05-13T07:08:41.892Z,7.80
2023-05-13T07:11:08.819Z,8.38
2023-05-13T07:13:35.938Z,7.05
2023-05-13T07:16:03.117Z,7.63
2023-05-13T07:18:30.214Z,7.65
2023-05-13T07:20:57.486Z,7.88
2023-05-13T07:23:24.903Z,7.30
2023-05-13T07:25:52.569Z,7.28
2023-05-13T07:28:23.097Z,7.70
2023-05-13T07:30:50.829Z,7.65
2023-05-13T07:33:17.907Z,8.23
2023-05-13T07:35:45.113Z,7.55
2023-05-13T07:38:12.381Z,6.68
2023-05-13T07:40:39.759Z,7.15
2023-05-13T07:43:07.017Z,6.97
2023-05-13T07:45:34.392Z,7.38
2023-05-13T07:48:01.512Z,7.38
2023-05-13T07:50:28.668Z,7.93
2023-05-13T07:52:55.675Z,7.53
2023-05-13T07:55:22.919Z,7.53
2023-05-13T07:57:50.192Z,7.18
2023-05-13T08:00:17.550Z,7.63
2023-05-13T08:02:44.731Z,7.35
2023-05-13T08:05:12.430Z,7.28
2023-05-13T08:07:39.524Z,7.25
2023-05-13T08:10:07.296Z,7.80
2023-05-13T08:12:34.541Z,6.97
2023-05-13T08:15:03.992Z,6.97
2023-05-13T08:17:31.014Z,7.15
2023-05-13T08:19:59.414Z,6.38
2023-05-13T08:22:27.510Z,7.55
2023-05-13T08:24:54.493Z,7.05
2023-05-13T08:27:21.467Z,6.32
2023-05-13T08:29:48.485Z,6.50
2023-05-13T08:32:15.440Z,7.75
2023-05-13T08:34:42.437Z,6.95
2023-05-13T08:37:09.699Z,6.60
2023-05-13T08:39:36.853Z,7.28
2023-05-13T08:42:04.872Z,7.45
2023-05-13T08:44:32.925Z,7.32
2023-05-13T08:47:26.835Z,7.63
2023-05-13T08:49:53.959Z,6.85
2023-05-13T08:52:22.970Z,7.05
2023-05-13T08:54:50.577Z,7.85
2023-05-13T08:57:17.847Z,6.78
2023-05-13T08:59:45.087Z,7.30
2023-05-13T09:02:12.383Z,7.13
2023-05-13T09:04:42.231Z,7.32
2023-05-13T09:07:10.518Z,7.38
2023-05-13T09:09:37.684Z,7.28
2023-05-13T09:12:05.967Z,8.15
2023-05-13T09:14:33.337Z,6.88
2023-05-13T09:17:02.273Z,7.07
2023-05-13T09:19:29.465Z,5.90
2023-05-13T09:21:57.630Z,6.93
2023-05-13T09:24:24.682Z,6.60
2023-05-13T09:26:52.207Z,7.07
2023-05-13T09:29:30.720Z,6.40
2023-05-13T09:32:00.903Z,6.68
2023-05-13T09:34:35.292Z,6.60
2023-05-13T09:37:09.019Z,5.85
2023-05-13T09:39:41.867Z,6.03
2023-05-13T09:42:22.154Z,6.10
2023-05-13T09:44:49.943Z,7.47
2023-05-13T09:47:17.891Z,7.38
2023-05-13T09:49:47.113Z,6.93
2023-05-13T09:52:17.264Z,6.90
2023-05-13T09:54:44.947Z,6.78
2023-05-13T09:57:14.144Z,5.60
2023-05-13T09:59:41.837Z,4.97
2023-05-13T10:02:10.266Z,6.30
2023-05-13T10:04:37.804Z,5.97
2023-05-13T10:07:05.950Z,5.93
2023-05-13T10:09:36.876Z,5.65
2023-05-13T10:12:08.730Z,4.95
2023-05-13T10:14:38.259Z,5.07
2023-05-13T10:17:06.689Z,4.70
2023-05-13T10:19:34.150Z,4.40
2023-05-13T10:22:02.390Z,4.35
2023-05-13T10:24:30.057Z,5.10
2023-05-13T10:26:58.964Z,4.13
2023-05-13T10:29:29.059Z,4.53
2023-05-13T10:31:58.250Z,3.63
2023-05-13T10:34:26.214Z,3.13
2023-05-13T10:37:38.033Z,3.67
2023-05-13T10:40:17.684Z,3.47
2023-05-13T10:42:55.417Z,3.20
2023-05-13T10:45:27.536Z,3.03
2023-05-13T10:47:56.487Z,3.55
2023-05-13T10:50:25.319Z,2.95
2023-05-13T10:52:58.253Z,3.50
2023-05-13T10:55:27.553Z,3.35
2023-05-13T10:58:15.104Z,3.70
2023-05-13T11:00:45.049Z,3.40
2023-05-13T11:03:19.408Z,3.40
2023-05-13T11:06:14.821Z,3.17
2023-05-13T11:08:47.681Z,3.37
2023-05-13T11:11:24.703Z,2.95
2023-05-13T11:14:16.255Z,2.33
2023-05-13T11:16:55.317Z,3.15
2023-05-13T11:19:33.296Z,2.80
2023-05-13T11:22:24.446Z,2.88
2023-05-13T11:25:09.410Z,2.92
2023-05-13T11:27:41.711Z,2.87
2023-05-13T11:30:26.849Z,2.72
2023-05-13T11:32:59.093Z,1.98
2023-05-13T11:35:29.139Z,2.42
2023-05-13T11:38:00.091Z,3.40
2023-05-13T11:40:32.082Z,3.17
2023-05-13T11:43:01.175Z,2.20
2023-05-13T11:45:29.934Z,1.95
2023-05-13T11:47:57.619Z,2.50
2023-05-13T11:50:30.344Z,1.90
2023-05-13T11:52:59.753Z,2.50
2023-05-13T11:55:32.388Z,2.40
2023-05-13T11:58:00.087Z,1.92
2023-05-13T12:00:32.535Z,2.42
2023-05-13T12:03:01.349Z,2.75
2023-05-13T12:05:28.770Z,1.90
2023-05-13T12:07:58.948Z,1.95
2023-05-13T12:10:27.238Z,2.00
2023-05-13T12:12:54.603Z,2.25
2023-05-13T12:15:23.103Z,2.42
2023-05-13T12:17:51.112Z,1.98
2023-05-13T12:20:23.674Z,2.50
2023-05-13T12:22:54.473Z,1.80
2023-05-13T12:25:43.679Z,1.85
2023-05-13T12:28:18.589Z,2.00
2023-05-13T12:31:04.371Z,2.53
2023-05-13T12:33:43.736Z,2.13
2023-05-13T12:36:40.094Z,2.20
2023-05-13T12:39:11.641Z,2.30
2023-05-13T12:41:43.804Z,2.33
2023-05-13T12:44:14.717Z,1.92
2023-05-13T12:46:52.703Z,1.73
2023-05-13T12:49:20.302Z,1.88
2023-05-13T12:51:47.301Z,1.92
2023-05-13T12:54:14.362Z,2.10
2023-05-13T12:56:41.459Z,2.33
2023-05-13T12:59:09.254Z,1.60
2023-05-13T13:01:38.780Z,2.47
2023-05-13T13:04:06.583Z,2.15
2023-05-13T13:06:33.703Z,2.00
2023-05-13T13:09:00.591Z,1.73
2023-05-13T13:11:27.560Z,2.17
2023-05-13T13:13:54.560Z,1.75
2023-05-13T13:16:21.920Z,2.30
2023-05-13T13:18:50.952Z,2.55
2023-05-13T13:21:18.899Z,1.58
2023-05-13T13:23:46.102Z,1.92
2023-05-13T13:26:13.129Z,2.20
2023-05-13T13:28:40.130Z,2.20
2023-05-13T13:31:07.910Z,2.20
2023-05-13T13:33:35.038Z,2.47
2023-05-13T13:36:01.985Z,2.25
2023-05-13T13:38:28.906Z,2.35
2023-05-13T13:40:55.975Z,2.30
2023-05-13T13:43:23.389Z,2.15
2023-05-13T13:45:50.504Z,1.85
2023-05-13T13:48:17.551Z,2.00
2023-05-13T13:50:46.057Z,1.73
2023-05-13T13:53:14.452Z,1.80
2023-05-13T13:55:41.459Z,2.30
2023-05-13T13:58:08.478Z,2.40
2023-05-13T14:00:35.503Z,2.38
2023-05-13T14:03:02.939Z,2.88
2023-05-13T14:05:30.060Z,2.30
2023-05-13T14:07:57.017Z,2.58
2023-05-13T14:10:24.170Z,2.97
2023-05-13T14:12:51.417Z,2.60
2023-05-13T14:15:18.358Z,2.10
2023-05-13T14:17:45.431Z,1.92
2023-05-13T14:20:12.609Z,2.00
2023-05-13T14:22:39.524Z,2.55
2023-05-13T14:25:06.900Z,2.22
2023-05-13T14:27:36.346Z,2.17
2023-05-13T14:30:04.779Z,2.63
2023-05-13T14:32:31.855Z,2.40
2023-05-13T14:34:59.363Z,2.50
2023-05-13T14:37:26.671Z,2.28
2023-05-13T14:39:53.629Z,2.17
2023-05-13T14:42:21.713Z,2.22
2023-05-13T14:44:48.687Z,1.95
2023-05-13T14:47:15.911Z,2.15
2023-05-13T14:49:43.125Z,1.80
2023-05-13T14:52:10.137Z,2.08
2023-05-13T14:54:38.241Z,2.13
2023-05-13T14:57:07.346Z,1.75
2023-05-13T14:59:34.656Z,2.08
2023-05-13T15:02:03.476Z,1.80
2023-05-13T15:04:30.844Z,2.35
2023-05-13T15:06:58.335Z,2.63
2023-05-13T15:09:25.393Z,2.05
2023-05-13T15:11:52.419Z,2.58
2023-05-13T15:14:21.036Z,2.03
2023-05-13T15:16:48.121Z,3.33
2023-05-13T15:19:15.182Z,2.63
2023-05-13T15:21:42.239Z,2.40
2023-05-13T15:24:09.380Z,2.03
2023-05-13T15:26:36.405Z,2.22
2023-05-13T15:29:03.490Z,2.35
2023-05-13T15:31:31.902Z,1.95
2023-05-13T15:33:59.600Z,1.90
2023-05-13T15:36:26.609Z,2.75
2023-05-13T15:38:53.592Z,2.47
2023-05-13T15:41:20.633Z,2.83
2023-05-13T15:43:47.626Z,2.13
2023-05-13T15:46:14.660Z,2.40
2023-05-13T15:48:42.059Z,2.10
2023-05-13T15:51:09.092Z,1.90
2023-05-13T15:53:36.439Z,1.88
2023-05-13T15:56:03.537Z,2.03
2023-05-13T15:58:30.726Z,2.75
2023-05-13T16:00:58.917Z,2.30
2023-05-13T16:03:25.950Z,2.13
2023-05-13T16:05:53.020Z,2.45
2023-05-13T16:08:20.081Z,2.20
2023-05-13T16:10:47.039Z,2.40
2023-05-13T16:13:14.147Z,1.92
2023-05-13T16:15:41.194Z,2.10
2023-05-13T16:18:08.657Z,1.90
2023-05-13T16:20:35.708Z,2.13
2023-05-13T16:23:02.675Z,1.88
2023-05-13T16:25:29.661Z,1.80
2023-05-13T16:27:56.715Z,2.17
2023-05-13T16:30:24.042Z,1.90
2023-05-13T16:32:54.471Z,1.98
2023-05-13T16:35:22.344Z,1.65
2023-05-13T16:37:50.046Z,2.08
2023-05-13T16:40:17.044Z,2.60
2023-05-13T16:42:44.000Z,2.10
2023-05-13T16:45:11.217Z,2.03
2023-05-13T16:47:38.722Z,2.83
2023-05-13T16:50:08.385Z,2.22
2023-05-13T16:52:35.558Z,2.20
2023-05-13T16:55:03.006Z,2.50
2023-05-13T16:57:30.034Z,2.17
2023-05-13T16:59:57.013Z,1.60
2023-05-13T17:02:24.030Z,2.00
2023-05-13T17:04:51.365Z,2.08
2023-05-13T17:07:18.304Z,1.77
2023-05-13T17:09:45.563Z,2.08
2023-05-13T17:12:12.690Z,2.25
2023-05-13T17:14:39.701Z,2.05
2023-05-13T17:17:06.702Z,1.98
2023-05-13T17:19:33.877Z,1.83
2023-05-13T17:22:00.821Z,2.45
2023-05-13T17:24:30.540Z,2.20
2023-05-13T17:26:57.465Z,2.20
2023-05-13T17:29:25.663Z,1.83
2023-05-13T17:31:52.842Z,1.83
2023-05-13T17:34:20.301Z,1.92
2023-05-13T17:36:49.861Z,2.88
2023-05-13T17:39:17.101Z,1.80
2023-05-13T17:41:44.034Z,2.17
2023-05-13T17:44:11.009Z,1.75
2023-05-13T17:46:38.034Z,1.83
2023-05-13T17:49:05.192Z,1.70
2023-05-13T17:51:32.366Z,2.17
2023-05-13T17:53:59.298Z,1.85
2023-05-13T17:56:26.198Z,1.42
2023-05-13T17:58:53.131Z,2.15
2023-05-13T18:01:21.686Z,1.77
2023-05-13T18:03:48.732Z,1.92
2023-05-13T18:06:16.055Z,2.28
2023-05-13T18:08:43.107Z,2.35
2023-05-13T18:11:10.026Z,2.05
2023-05-13T18:13:37.006Z,1.90
2023-05-13T18:16:05.964Z,2.10
2023-05-13T18:18:33.047Z,1.95
2023-05-13T18:21:00.441Z,2.30
2023-05-13T18:23:27.414Z,2.00
2023-05-13T18:25:56.283Z,1.70
2023-05-13T18:28:24.083Z,1.73
2023-05-13T18:30:51.154Z,1.77
2023-05-13T18:33:21.522Z,2.30
2023-05-13T18:35:48.836Z,1.92
2023-05-13T18:38:15.865Z,1.80
2023-05-13T18:40:42.780Z,1.92
2023-05-13T18:43:09.758Z,1.80
2023-05-13T18:45:36.798Z,1.83
2023-05-13T18:48:04.354Z,2.22
2023-05-13T18:50:31.330Z,2.20
2023-05-13T18:52:58.307Z,2.63
2023-05-13T18:55:25.297Z,2.90
2023-05-13T18:57:52.300Z,2.45
2023-05-13T19:00:19.524Z,2.67
2023-05-13T19:02:46.622Z,4.07
2023-05-13T19:05:13.722Z,3.15
2023-05-13T19:07:40.667Z,2.72
2023-05-13T19:10:07.868Z,2.55
2023-05-13T19:12:34.795Z,2.70
2023-05-13T19:15:01.674Z,3.15
2023-05-13T19:17:28.722Z,3.67
2023-05-13T19:19:57.049Z,2.78
2023-05-13T19:22:23.968Z,3.65
2023-05-13T19:24:50.955Z,2.78
2023-05-13T19:27:17.997Z,3.45
2023-05-13T19:29:44.927Z,3.35
2023-05-13T19:32:11.813Z,3.38
2023-05-13T19:34:38.822Z,3.60
2023-05-13T19:37:06.357Z,4.07
2023-05-13T19:39:33.289Z,3.28
2023-05-13T19:42:00.436Z,3.10
2023-05-13T19:44:28.559Z,3.22
2023-05-13T19:46:56.578Z,3.63
2023-05-13T19:49:24.810Z,3.15
2023-05-13T19:51:52.977Z,3.42
2023-05-13T19:54:20.570Z,4.10
2023-05-13T19:56:47.593Z,2.80
2023-05-13T19:59:14.607Z,3.15
2023-05-13T20:01:42.005Z,3.35
2023-05-13T20:04:09.561Z,3.22
2023-05-13T20:06:36.784Z,3.75
2023-05-13T20:09:03.968Z,3.35
2023-05-13T20:11:31.460Z,3.42
2023-05-13T20:13:59.310Z,3.30
2023-05-13T20:16:26.661Z,3.60
2023-05-13T20:18:53.750Z,3.85
2023-05-13T20:21:21.021Z,3.38
2023-05-13T20:23:48.070Z,4.43
2023-05-13T20:26:15.205Z,4.03
2023-05-13T20:28:42.381Z,4.93
2023-05-13T20:31:09.443Z,3.78
2023-05-13T20:33:36.884Z,3.70
2023-05-13T20:36:04.030Z,3.88
2023-05-13T20:38:30.998Z,4.13
2023-05-13T20:40:58.105Z,4.10
2023-05-13T20:43:25.163Z,3.58
2023-05-13T20:45:52.193Z,4.13
2023-05-13T20:48:19.228Z,4.15
2023-05-13T20:50:46.246Z,3.70
2023-05-13T20:53:13.232Z,3.90
2023-05-13T20:55:40.091Z,3.90
2023-05-13T20:58:07.055Z,4.55
2023-05-13T21:00:33.993Z,4.63
2023-05-13T21:03:01.075Z,4.30
2023-05-13T21:05:28.156Z,4.55
2023-05-13T21:07:55.134Z,4.93
2023-05-13T21:10:22.428Z,4.40
2023-05-13T21:12:49.505Z,4.25
2023-05-13T21:15:16.740Z,4.80
2023-05-13T21:17:43.764Z,5.15
2023-05-13T21:20:11.722Z,4.38
2023-05-13T21:22:38.660Z,4.32
2023-05-13T21:25:06.625Z,5.32
2023-05-13T21:27:33.556Z,4.63
2023-05-13T21:30:00.506Z,5.07
2023-05-13T21:32:27.407Z,5.47
2023-05-13T21:34:56.143Z,4.60
2023-05-13T21:37:23.476Z,5.47
2023-05-13T21:39:50.441Z,4.43
2023-05-13T21:42:17.400Z,6.28
2023-05-13T21:44:44.354Z,4.97
2023-05-13T21:47:11.290Z,5.93
2023-05-13T21:49:38.235Z,6.53
2023-05-13T21:52:05.732Z,6.60
2023-05-13T21:54:32.631Z,6.38
2023-05-13T21:56:59.549Z,5.43
2023-05-13T21:59:26.692Z,6.68
2023-05-13T22:01:53.671Z,6.95
2023-05-13T22:04:20.724Z,6.20
2023-05-13T22:06:47.672Z,7.28
2023-05-13T22:09:14.586Z,7.05
2023-05-13T22:11:41.541Z,6.47
2023-05-13T22:14:08.588Z,6.97
2023-05-13T22:16:36.012Z,6.13
2023-05-13T22:19:04.343Z,6.85
2023-05-13T22:21:32.353Z,7.38
2023-05-13T22:23:59.472Z,7.53
2023-05-13T22:26:26.457Z,7.28
2023-05-13T22:28:53.484Z,7.07
2023-05-13T22:31:20.483Z,7.22
2023-05-13T22:33:47.406Z,7.68
2023-05-13T22:36:15.088Z,6.93
2023-05-13T22:38:42.690Z,7.05
2023-05-13T22:41:09.664Z,7.15
2023-05-13T22:43:36.532Z,7.30
2023-05-13T22:46:03.649Z,7.50
2023-05-13T22:48:30.861Z,8.23
2023-05-13T22:50:58.406Z,8.15
2023-05-13T22:53:25.528Z,8.07
2023-05-13T22:55:52.786Z,7.50
2023-05-13T22:58:22.626Z,8.45
2023-05-13T23:00:50.041Z,7.38
2023-05-13T23:03:17.121Z,7.38
2023-05-13T23:05:44.088Z,7.75
2023-05-13T23:08:11.020Z,8.65
2023-05-13T23:10:37.932Z,7.90
2023-05-13T23:13:05.840Z,7.63
2023-05-13T23:15:33.391Z,7.97
2023-05-13T23:18:00.429Z,7.97
2023-05-13T23:20:27.478Z,7.55
2023-05-13T23:22:55.205Z,8.52
2023-05-13T23:25:22.200Z,7.78
2023-05-13T23:27:50.927Z,9.38
2023-05-13T23:30:18.095Z,8.70
2023-05-13T23:32:45.114Z,7.88
2023-05-13T23:35:12.537Z,8.50
2023-05-13T23:37:39.560Z,8.75
2023-05-13T23:40:07.464Z,10.38
2023-05-13T23:42:34.370Z,9.25
2023-05-13T23:45:01.270Z,9.30
2023-05-13T23:47:29.614Z,9.90
2023-05-13T23:49:58.005Z,9.93
2023-05-13T23:52:24.996Z,10.27
2023-05-13T23:54:51.891Z,9.30
2023-05-13T23:57:19.003Z,9.70
2023-05-13T23:59:45.939Z,10.40
